PWSweather.com
Personal Weather Stations
Station Observations
IPUGLIAA10
Acquaviva Delle FontiIT 70021

Acquaviva Delle FontiIT 70021

Lat: 40.8906215, Lon: 16.8456484

Elevation: 1020

Station Type: Davis Vantage Vue

http://www.meteoacquaviva.it

Latest ConditionsUpdated 5:10:08 PM GMT+01:01 Monday, Oct 15, 2018
Currently Today's Max Today's Min Today's Average
Temperature 66.7°F19.3°C 74.3°F23.5°C 56.3°F13.5°C 65.2°F18.4°C
Dew Point 60.0°F15.6°C 60.9°F16.1°C 53.4°F11.9°C 57.2°F14.0°C
Winds 1.2 mph SE1.9 kmh SE 5.8 mph -9.3 kmh - - 1.9 mph 3.1 kmh
Wind Gusts 1.2 mph1.9 kmh 11.5 mph18.5 kmh - -
Humidity 79% 95% 49% 77%
Pressure 30.05 in1017.6 mb 30.06 in1017.9 mb 30.03 in1016.9 mb -
Precipitation - 0.01 in0.3 mm - -
Hour Temp Dew Point Humidity Winds Wind Gusts Pressure Precip Precip Rate Daily Precip Total
05:10 PM 66.7°F19.3°C 60.0°F15.6°C 79% 1.2 mph SE1.9 kmh SE 1.2 mph1.9 kmh 30.05 in1017.6 mb - 0.00 in0.0 mm 0.01 in0.3 mm
05:00 PM 67.2°F19.6°C 59.8°F15.4°C 77% 1.2 mph SE1.9 kmh SE 3.5 mph5.6 kmh 30.05 in1017.6 mb - 0.00 in0.0 mm 0.01 in0.3 mm
04:50 PM 67.7°F19.8°C 59.1°F15.1°C 74% 2.3 mph SE3.7 kmh SE 3.5 mph5.6 kmh 30.05 in1017.6 mb - 0.00 in0.0 mm 0.01 in0.3 mm
04:40 PM 68.1°F20.1°C 58.8°F14.9°C 72% 2.3 mph ESE3.7 kmh ESE 4.6 mph7.4 kmh 30.04 in1017.3 mb - 0.00 in0.0 mm 0.01 in0.3 mm
04:30 PM 68.3°F20.2°C 58.5°F14.7°C 71% 2.3 mph SE3.7 kmh SE 3.5 mph5.6 kmh 30.04 in1017.3 mb - 0.00 in0.0 mm 0.01 in0.3 mm
04:20 PM 68.4°F20.2°C 58.6°F14.8°C 71% 2.3 mph E3.7 kmh E 3.5 mph5.6 kmh 30.04 in1017.3 mb - 0.00 in0.0 mm 0.01 in0.3 mm
04:10 PM 68.5°F20.3°C 60.6°F15.9°C 76% 1.2 mph SE1.9 kmh SE 3.5 mph5.6 kmh 30.04 in1017.3 mb - 0.00 in0.0 mm 0.01 in0.3 mm
04:00 PM 68.8°F20.4°C 60.6°F15.9°C 75% 3.5 mph SE5.6 kmh SE 5.8 mph9.3 kmh 30.04 in1017.3 mb - 0.00 in0.0 mm 0.01 in0.3 mm
03:50 PM 69.4°F20.8°C 60.0°F15.6°C 72% 4.6 mph SE7.4 kmh SE 6.9 mph11.1 kmh 30.04 in1017.3 mb - 0.00 in0.0 mm 0.01 in0.3 mm
03:40 PM 69.9°F21.1°C 59.6°F15.3°C 70% 4.6 mph SE7.4 kmh SE 6.9 mph11.1 kmh 30.04 in1017.3 mb - 0.00 in0.0 mm 0.01 in0.3 mm
03:30 PM 70.1°F21.2°C 60.3°F15.7°C 71% 4.6 mph SE7.4 kmh SE 4.6 mph7.4 kmh 30.04 in1017.3 mb - 0.00 in0.0 mm 0.01 in0.3 mm
03:20 PM 70.0°F21.1°C 60.1°F15.6°C 71% 5.8 mph SE9.3 kmh SE 6.9 mph11.1 kmh 30.04 in1017.3 mb - 0.00 in0.0 mm 0.01 in0.3 mm
03:10 PM 70.5°F21.4°C 60.2°F15.7°C 70% 4.6 mph SE7.4 kmh SE 11.5 mph18.5 kmh 30.04 in1017.3 mb - 0.00 in0.0 mm 0.01 in0.3 mm
03:00 PM 70.8°F21.6°C 57.6°F14.2°C 63% 3.5 mph SE5.6 kmh SE 5.8 mph9.3 kmh 30.04 in1017.3 mb - 0.00 in0.0 mm 0.01 in0.3 mm
02:50 PM 71.0°F21.7°C 57.7°F14.3°C 63% 2.3 mph SE3.7 kmh SE 3.5 mph5.6 kmh 30.03 in1016.9 mb - 0.00 in0.0 mm 0.01 in0.3 mm
02:40 PM 71.3°F21.8°C 57.2°F14.0°C 61% 3.5 mph SE5.6 kmh SE 4.6 mph7.4 kmh 30.03 in1016.9 mb - 0.00 in0.0 mm 0.01 in0.3 mm
02:30 PM 72.1°F22.3°C 57.0°F13.9°C 59% 4.6 mph SE7.4 kmh SE 6.9 mph11.1 kmh 30.03 in1016.9 mb - 0.00 in0.0 mm 0.01 in0.3 mm
02:20 PM 72.0°F22.2°C 57.4°F14.1°C 60% 2.3 mph SE3.7 kmh SE 5.8 mph9.3 kmh 30.03 in1016.9 mb - 0.00 in0.0 mm 0.01 in0.3 mm
02:10 PM 72.1°F22.3°C 57.0°F13.9°C 59% 1.2 mph ENE1.9 kmh ENE 4.6 mph7.4 kmh 30.03 in1016.9 mb - 0.00 in0.0 mm 0.01 in0.3 mm
02:00 PM 71.9°F22.2°C 56.8°F13.8°C 59% 2.3 mph SE3.7 kmh SE 3.5 mph5.6 kmh 30.03 in1016.9 mb - 0.00 in0.0 mm 0.01 in0.3 mm
01:50 PM 71.5°F21.9°C 56.4°F13.6°C 59% 2.3 mph SE3.7 kmh SE 4.6 mph7.4 kmh 30.04 in1017.3 mb - 0.00 in0.0 mm 0.01 in0.3 mm
01:40 PM 71.8°F22.1°C 56.3°F13.5°C 58% 3.5 mph ESE5.6 kmh ESE 8.1 mph13.0 kmh 30.04 in1017.3 mb - 0.00 in0.0 mm 0.01 in0.3 mm
01:30 PM 72.5°F22.5°C 55.4°F13.0°C 55% 3.5 mph E5.6 kmh E 4.6 mph7.4 kmh 30.03 in1016.9 mb - 0.00 in0.0 mm 0.01 in0.3 mm
01:20 PM 72.8°F22.7°C 55.7°F13.2°C 55% 2.3 mph SE3.7 kmh SE 4.6 mph7.4 kmh 30.04 in1017.3 mb - 0.00 in0.0 mm 0.01 in0.3 mm
01:10 PM 73.3°F22.9°C 55.6°F13.1°C 54% 4.6 mph SE7.4 kmh SE 9.2 mph14.8 kmh 30.04 in1017.3 mb - 0.00 in0.0 mm 0.01 in0.3 mm
01:00 PM 73.3°F22.9°C 55.6°F13.1°C 54% 3.5 mph ESE5.6 kmh ESE 8.1 mph13.0 kmh 30.04 in1017.3 mb - 0.00 in0.0 mm 0.01 in0.3 mm
12:50 PM 73.4°F23.0°C 54.7°F12.6°C 52% 2.3 mph NE3.7 kmh NE 2.3 mph3.7 kmh 30.04 in1017.3 mb - 0.00 in0.0 mm 0.01 in0.3 mm
12:40 PM 73.3°F22.9°C 54.6°F12.6°C 52% 5.8 mph ESE9.3 kmh ESE 8.1 mph13.0 kmh 30.04 in1017.3 mb - 0.00 in0.0 mm 0.01 in0.3 mm
12:30 PM 73.3°F22.9°C 54.6°F12.6°C 52% 4.6 mph E7.4 kmh E 6.9 mph11.1 kmh 30.04 in1017.3 mb - 0.00 in0.0 mm 0.01 in0.3 mm
12:20 PM 73.9°F23.3°C 54.1°F12.3°C 50% 5.8 mph E9.3 kmh E 5.8 mph9.3 kmh 30.05 in1017.6 mb - 0.00 in0.0 mm 0.01 in0.3 mm
12:10 PM 73.8°F23.2°C 53.4°F11.9°C 49% 3.5 mph NE5.6 kmh NE 3.5 mph5.6 kmh 30.05 in1017.6 mb - 0.00 in0.0 mm 0.01 in0.3 mm
12:00 PM 73.8°F23.2°C 54.5°F12.5°C 51% 2.3 mph NE3.7 kmh NE 9.2 mph14.8 kmh 30.05 in1017.6 mb - 0.00 in0.0 mm 0.01 in0.3 mm
11:50 AM 73.9°F23.3°C 54.1°F12.3°C 50% 5.8 mph ESE9.3 kmh ESE 10.4 mph16.7 kmh 30.05 in1017.6 mb - 0.00 in0.0 mm 0.01 in0.3 mm
11:40 AM 74.3°F23.5°C 54.5°F12.5°C 50% 2.3 mph E3.7 kmh E 3.5 mph5.6 kmh 30.05 in1017.6 mb - 0.00 in0.0 mm 0.01 in0.3 mm
11:30 AM 73.4°F23.0°C 55.3°F12.9°C 53% 2.3 mph ENE3.7 kmh ENE 3.5 mph5.6 kmh 30.05 in1017.6 mb - 0.00 in0.0 mm 0.01 in0.3 mm
11:20 AM 73.7°F23.2°C 56.0°F13.3°C 54% 3.5 mph ENE5.6 kmh ENE 4.6 mph7.4 kmh 30.05 in1017.6 mb - 0.00 in0.0 mm 0.01 in0.3 mm
11:10 AM 72.4°F22.4°C 56.3°F13.5°C 57% 2.3 mph NE3.7 kmh NE 3.5 mph5.6 kmh 30.05 in1017.6 mb - 0.00 in0.0 mm 0.01 in0.3 mm
11:00 AM 72.3°F22.4°C 56.2°F13.4°C 57% 4.6 mph NE7.4 kmh NE 8.1 mph13.0 kmh 30.05 in1017.6 mb - 0.00 in0.0 mm 0.01 in0.3 mm
10:50 AM 71.6°F22.0°C 56.5°F13.6°C 59% 3.5 mph E5.6 kmh E 6.9 mph11.1 kmh 30.05 in1017.6 mb - 0.00 in0.0 mm 0.01 in0.3 mm
10:40 AM 72.2°F22.3°C 56.6°F13.7°C 58% 3.5 mph ENE5.6 kmh ENE 8.1 mph13.0 kmh 30.06 in1017.9 mb - 0.00 in0.0 mm 0.01 in0.3 mm
10:30 AM 72.1°F22.3°C 56.0°F13.3°C 57% 3.5 mph ESE5.6 kmh ESE 5.8 mph9.3 kmh 30.06 in1017.9 mb - 0.00 in0.0 mm 0.01 in0.3 mm
10:20 AM 71.6°F22.0°C 57.5°F14.2°C 61% 4.6 mph ESE7.4 kmh ESE 5.8 mph9.3 kmh 30.06 in1017.9 mb - 0.00 in0.0 mm 0.01 in0.3 mm
10:10 AM 71.8°F22.1°C 57.6°F14.2°C 61% 3.5 mph ENE5.6 kmh ENE 4.6 mph7.4 kmh 30.06 in1017.9 mb - 0.00 in0.0 mm 0.01 in0.3 mm
10:00 AM 71.2°F21.8°C 56.1°F13.4°C 59% 4.6 mph E7.4 kmh E 5.8 mph9.3 kmh 30.06 in1017.9 mb - 0.00 in0.0 mm 0.01 in0.3 mm
09:50 AM 71.0°F21.7°C 56.4°F13.6°C 60% 2.3 mph ESE3.7 kmh ESE 3.5 mph5.6 kmh 30.06 in1017.9 mb - 0.00 in0.0 mm 0.01 in0.3 mm
09:40 AM 70.5°F21.4°C 56.4°F13.6°C 61% 5.8 mph ESE9.3 kmh ESE 10.4 mph16.7 kmh 30.06 in1017.9 mb - 0.00 in0.0 mm 0.01 in0.3 mm
09:30 AM 69.6°F20.9°C 56.5°F13.6°C 63% 3.5 mph E5.6 kmh E 5.8 mph9.3 kmh 30.05 in1017.6 mb - 0.00 in0.0 mm 0.01 in0.3 mm
09:20 AM 69.2°F20.7°C 57.4°F14.1°C 66% 4.6 mph ESE7.4 kmh ESE 6.9 mph11.1 kmh 30.05 in1017.6 mb - 0.00 in0.0 mm 0.01 in0.3 mm
09:10 AM 69.1°F20.6°C 58.1°F14.5°C 68% 3.5 mph NE5.6 kmh NE 5.8 mph9.3 kmh 30.06 in1017.9 mb - 0.00 in0.0 mm 0.01 in0.3 mm
09:00 AM 68.4°F20.2°C 58.2°F14.6°C 70% 3.5 mph E5.6 kmh E 3.5 mph5.6 kmh 30.06 in1017.9 mb - 0.00 in0.0 mm 0.01 in0.3 mm
08:50 AM 67.8°F19.9°C 58.8°F14.9°C 73% 4.6 mph ESE7.4 kmh ESE 6.9 mph11.1 kmh 30.06 in1017.9 mb - 0.00 in0.0 mm 0.01 in0.3 mm
08:40 AM 67.2°F19.6°C 60.9°F16.1°C 80% 2.3 mph ENE3.7 kmh ENE 4.6 mph7.4 kmh 30.05 in1017.6 mb - 0.00 in0.0 mm 0.01 in0.3 mm
08:30 AM 65.9°F18.8°C 60.6°F15.9°C 83% 1.2 mph ESE1.9 kmh ESE 5.8 mph9.3 kmh 30.05 in1017.6 mb - 0.00 in0.0 mm 0.01 in0.3 mm
08:20 AM 65.5°F18.6°C 60.5°F15.8°C 84% 1.2 mph NE1.9 kmh NE 3.5 mph5.6 kmh 30.05 in1017.6 mb - 0.00 in0.0 mm 0.01 in0.3 mm
08:10 AM 65.0°F18.3°C 60.7°F15.9°C 86% 2.3 mph ESE3.7 kmh ESE 4.6 mph7.4 kmh 30.05 in1017.6 mb - 0.00 in0.0 mm 0.01 in0.3 mm
08:00 AM 64.0°F17.8°C 60.4°F15.8°C 88% Calm Calm 1.2 mph1.9 kmh 30.05 in1017.6 mb - 0.00 in0.0 mm 0.01 in0.3 mm
07:50 AM 63.2°F17.3°C 59.9°F15.5°C 89% 2.3 mph NE3.7 kmh NE 3.5 mph5.6 kmh 30.05 in1017.6 mb - 0.00 in0.0 mm 0.01 in0.3 mm
07:40 AM 62.0°F16.7°C 59.3°F15.2°C 91% 2.3 mph ENE3.7 kmh ENE 3.5 mph5.6 kmh 30.05 in1017.6 mb - 0.00 in0.0 mm 0.01 in0.3 mm
07:30 AM 61.9°F16.6°C 59.5°F15.3°C 92% 1.2 mph NE1.9 kmh NE 3.5 mph5.6 kmh 30.05 in1017.6 mb - 0.00 in0.0 mm 0.01 in0.3 mm
07:20 AM 61.7°F16.5°C 59.4°F15.2°C 92% 1.2 mph ENE1.9 kmh ENE 3.5 mph5.6 kmh 30.04 in1017.3 mb - 0.00 in0.0 mm 0.01 in0.3 mm
07:10 AM 61.4°F16.3°C 59.3°F15.2°C 93% Calm Calm 1.2 mph1.9 kmh 30.04 in1017.3 mb - 0.00 in0.0 mm 0.01 in0.3 mm
07:00 AM 61.1°F16.2°C 59.1°F15.1°C 93% 1.2 mph E1.9 kmh E 2.3 mph3.7 kmh 30.04 in1017.3 mb - 0.00 in0.0 mm 0.01 in0.3 mm
06:50 AM 60.8°F16.0°C 58.7°F14.8°C 93% 1.2 mph E1.9 kmh E 1.2 mph1.9 kmh 30.04 in1017.3 mb - 0.00 in0.0 mm 0.01 in0.3 mm
06:40 AM 60.8°F16.0°C 59.1°F15.1°C 94% 2.3 mph ENE3.7 kmh ENE 3.5 mph5.6 kmh 30.04 in1017.3 mb - 0.00 in0.0 mm 0.01 in0.3 mm
06:30 AM 60.5°F15.8°C 58.8°F14.9°C 94% 1.2 mph E1.9 kmh E 3.5 mph5.6 kmh 30.03 in1016.9 mb - 0.00 in0.0 mm 0.01 in0.3 mm
06:20 AM 60.1°F15.6°C 58.4°F14.7°C 94% 1.2 mph ENE1.9 kmh ENE 3.5 mph5.6 kmh 30.03 in1016.9 mb - 0.00 in0.0 mm 0.01 in0.3 mm
06:10 AM 60.0°F15.6°C 58.3°F14.6°C 94% Calm Calm 1.2 mph1.9 kmh 30.03 in1016.9 mb - 0.00 in0.0 mm 0.01 in0.3 mm
06:00 AM 59.9°F15.5°C 58.2°F14.6°C 94% Calm Calm 1.2 mph1.9 kmh 30.03 in1016.9 mb - 0.00 in0.0 mm 0.01 in0.3 mm
05:50 AM 59.7°F15.4°C 58.0°F14.4°C 94% Calm Calm 3.5 mph5.6 kmh 30.03 in1016.9 mb - 0.00 in0.0 mm 0.01 in0.3 mm
05:40 AM 59.2°F15.1°C 57.5°F14.2°C 94% Calm Calm 1.2 mph1.9 kmh 30.03 in1016.9 mb - 0.00 in0.0 mm 0.01 in0.3 mm
05:30 AM 59.0°F15.0°C 57.3°F14.1°C 94% Calm Calm 1.2 mph1.9 kmh 30.03 in1016.9 mb - 0.00 in0.0 mm 0.01 in0.3 mm
05:20 AM 58.7°F14.8°C 57.0°F13.9°C 94% Calm Calm -- 30.03 in1016.9 mb - 0.00 in0.0 mm 0.01 in0.3 mm
05:10 AM 58.5°F14.7°C 56.8°F13.8°C 94% Calm Calm -- 30.04 in1017.3 mb - 0.00 in0.0 mm 0.01 in0.3 mm
05:00 AM 58.4°F14.7°C 56.7°F13.7°C 94% Calm Calm -- 30.04 in1017.3 mb - 0.00 in0.0 mm 0.01 in0.3 mm
04:50 AM 58.3°F14.6°C 56.6°F13.7°C 94% Calm Calm -- 30.04 in1017.3 mb - 0.00 in0.0 mm 0.01 in0.3 mm
04:40 AM 58.1°F14.5°C 56.3°F13.5°C 94% Calm Calm -- 30.04 in1017.3 mb - 0.00 in0.0 mm 0.01 in0.3 mm
04:30 AM 57.9°F14.4°C 56.2°F13.4°C 94% Calm Calm 1.2 mph1.9 kmh 30.04 in1017.3 mb - 0.00 in0.0 mm 0.01 in0.3 mm
04:20 AM 57.7°F14.3°C 56.0°F13.3°C 94% Calm Calm -- 30.04 in1017.3 mb - 0.00 in0.0 mm 0.01 in0.3 mm
04:10 AM 57.6°F14.2°C 55.9°F13.3°C 94% Calm Calm -- 30.04 in1017.3 mb - 0.00 in0.0 mm 0.01 in0.3 mm
04:00 AM 57.4°F14.1°C 55.7°F13.2°C 94% Calm Calm 1.2 mph1.9 kmh 30.04 in1017.3 mb - 0.00 in0.0 mm 0.01 in0.3 mm
03:30 AM 57.3°F14.1°C 55.9°F13.3°C 95% Calm Calm -- 30.04 in1017.3 mb - 0.00 in0.0 mm 0.01 in0.3 mm
03:20 AM 57.0°F13.9°C 55.6°F13.1°C 95% Calm Calm -- 30.05 in1017.6 mb - 0.00 in0.0 mm 0.01 in0.3 mm
03:10 AM 56.8°F13.8°C 55.4°F13.0°C 95% Calm Calm -- 30.05 in1017.6 mb - 0.00 in0.0 mm 0.01 in0.3 mm
03:00 AM 56.9°F13.8°C 55.5°F13.1°C 95% Calm Calm -- 30.05 in1017.6 mb - 0.00 in0.0 mm 0.01 in0.3 mm
02:50 AM 56.8°F13.8°C 55.4°F13.0°C 95% Calm Calm -- 30.05 in1017.6 mb - 0.00 in0.0 mm 0.01 in0.3 mm
02:40 AM 56.9°F13.8°C 55.5°F13.1°C 95% Calm Calm -- 30.05 in1017.6 mb - 0.00 in0.0 mm 0.01 in0.3 mm
02:30 AM 57.0°F13.9°C 55.6°F13.1°C 95% Calm Calm -- 30.05 in1017.6 mb - 0.00 in0.0 mm 0.01 in0.3 mm
02:20 AM 56.3°F13.5°C 54.9°F12.7°C 95% Calm Calm -- 30.05 in1017.6 mb - 0.00 in0.0 mm 0.01 in0.3 mm
02:10 AM 56.3°F13.5°C 54.9°F12.7°C 95% Calm Calm -- 30.05 in1017.6 mb - 0.00 in0.0 mm 0.01 in0.3 mm
02:00 AM 56.7°F13.7°C 54.9°F12.7°C 94% Calm Calm -- 30.05 in1017.6 mb - 0.00 in0.0 mm 0.01 in0.3 mm
01:50 AM 57.0°F13.9°C 55.6°F13.1°C 95% Calm Calm -- 30.05 in1017.6 mb - 0.00 in0.0 mm 0.01 in0.3 mm
01:40 AM 57.3°F14.1°C 55.6°F13.1°C 94% Calm Calm -- 30.06 in1017.9 mb - 0.00 in0.0 mm 0.01 in0.3 mm
01:30 AM 57.8°F14.3°C 56.4°F13.6°C 95% Calm Calm -- 30.06 in1017.9 mb - 0.00 in0.0 mm 0.01 in0.3 mm
01:20 AM 58.0°F14.4°C 56.6°F13.7°C 95% Calm Calm -- 30.06 in1017.9 mb - 0.00 in0.0 mm 0.01 in0.3 mm
01:10 AM 58.2°F14.6°C 56.8°F13.8°C 95% Calm Calm -- 30.06 in1017.9 mb - 0.00 in0.0 mm 0.01 in0.3 mm
01:00 AM 58.2°F14.6°C 56.8°F13.8°C 95% Calm Calm -- 30.06 in1017.9 mb - 0.00 in0.0 mm 0.01 in0.3 mm
12:50 AM 58.2°F14.6°C 56.4°F13.6°C 94% Calm Calm -- 30.06 in1017.9 mb - 0.00 in0.0 mm 0.01 in0.3 mm
12:40 AM 58.2°F14.6°C 56.5°F13.6°C 94% Calm Calm -- 30.06 in1017.9 mb - 0.00 in0.0 mm 0.01 in0.3 mm
12:30 AM 58.2°F14.6°C 56.5°F13.6°C 94% Calm Calm -- 30.06 in1017.9 mb - 0.01 in0.3 mm 0.01 in0.3 mm
12:20 AM 58.2°F14.6°C 56.5°F13.6°C 94% Calm Calm -- 30.06 in1017.9 mb - 0.01 in0.3 mm 0.01 in0.3 mm
12:10 AM 58.3°F14.6°C 56.9°F13.8°C 95% Calm Calm -- 30.06 in1017.9 mb - 0.01 in0.3 mm 0.01 in0.3 mm
12:00 AM 57.9°F14.4°C 56.5°F13.6°C 95% Calm Calm -- 30.06 in1017.9 mb - 0.01 in0.3 mm 0.01 in0.3 mm